sensor_id;sensor_type;location;lat;lon;timestamp;pressure;altitude;pressure_sealevel;temperature;humidity
76819;BME280;65772;51.096;17.006;2024-01-30T00:01:39;101829.11;;;7.79;46.53
76819;BME280;65772;51.096;17.006;2024-01-30T00:04:10;101825.66;;;7.78;46.59
76819;BME280;65772;51.096;17.006;2024-01-30T00:06:41;101824.02;;;7.77;46.52
76819;BME280;65772;51.096;17.006;2024-01-30T00:09:12;101826.24;;;7.75;46.73
76819;BME280;65772;51.096;17.006;2024-01-30T00:11:43;101830.91;;;7.73;46.62
76819;BME280;65772;51.096;17.006;2024-01-30T00:14:13;101826.39;;;7.71;46.57
76819;BME280;65772;51.096;17.006;2024-01-30T00:16:44;101829.73;;;7.70;46.80
76819;BME280;65772;51.096;17.006;2024-01-30T00:19:15;101829.59;;;7.68;46.64
76819;BME280;65772;51.096;17.006;2024-01-30T00:21:45;101825.92;;;7.67;46.87
76819;BME280;65772;51.096;17.006;2024-01-30T00:24:16;101828.27;;;7.66;46.84
76819;BME280;65772;51.096;17.006;2024-01-30T00:26:46;101834.16;;;7.65;46.90
76819;BME280;65772;51.096;17.006;2024-01-30T00:29:17;101834.70;;;7.63;46.85
76819;BME280;65772;51.096;17.006;2024-01-30T00:31:49;101834.75;;;7.59;46.77
76819;BME280;65772;51.096;17.006;2024-01-30T00:34:19;101837.48;;;7.54;46.88
76819;BME280;65772;51.096;17.006;2024-01-30T00:36:50;101836.53;;;7.52;47.06
76819;BME280;65772;51.096;17.006;2024-01-30T00:39:21;101840.63;;;7.50;47.23
76819;BME280;65772;51.096;17.006;2024-01-30T00:41:51;101833.35;;;7.48;47.24
76819;BME280;65772;51.096;17.006;2024-01-30T00:44:22;101836.13;;;7.46;47.35
76819;BME280;65772;51.096;17.006;2024-01-30T00:46:52;101834.71;;;7.43;47.24
76819;BME280;65772;51.096;17.006;2024-01-30T00:49:23;101829.65;;;7.41;47.40
76819;BME280;65772;51.096;17.006;2024-01-30T00:51:53;101831.40;;;7.39;47.43
76819;BME280;65772;51.096;17.006;2024-01-30T00:54:24;101832.31;;;7.37;47.68
76819;BME280;65772;51.096;17.006;2024-01-30T00:56:54;101830.90;;;7.34;47.71
76819;BME280;65772;51.096;17.006;2024-01-30T00:59:26;101830.56;;;7.31;47.64
76819;BME280;65772;51.096;17.006;2024-01-30T01:01:56;101826.98;;;7.28;47.61
76819;BME280;65772;51.096;17.006;2024-01-30T01:04:27;101829.01;;;7.28;47.81
76819;BME280;65772;51.096;17.006;2024-01-30T01:06:58;101834.59;;;7.28;47.76
76819;BME280;65772;51.096;17.006;2024-01-30T01:09:28;101838.42;;;7.27;47.95
76819;BME280;65772;51.096;17.006;2024-01-30T01:11:59;101837.13;;;7.25;48.01
76819;BME280;65772;51.096;17.006;2024-01-30T01:14:29;101834.98;;;7.23;47.95
76819;BME280;65772;51.096;17.006;2024-01-30T01:17:00;101830.25;;;7.21;47.97
76819;BME280;65772;51.096;17.006;2024-01-30T01:19:30;101829.98;;;7.20;48.00
76819;BME280;65772;51.096;17.006;2024-01-30T01:22:02;101833.43;;;7.18;48.02
76819;BME280;65772;51.096;17.006;2024-01-30T01:24:32;101834.95;;;7.16;48.15
76819;BME280;65772;51.096;17.006;2024-01-30T01:27:04;101840.91;;;7.13;48.20
76819;BME280;65772;51.096;17.006;2024-01-30T01:29:35;101834.61;;;7.11;48.36
76819;BME280;65772;51.096;17.006;2024-01-30T01:32:06;101828.55;;;7.09;48.30
76819;BME280;65772;51.096;17.006;2024-01-30T01:34:37;101826.92;;;7.07;48.24
76819;BME280;65772;51.096;17.006;2024-01-30T01:37:08;101824.05;;;7.03;48.29
76819;BME280;65772;51.096;17.006;2024-01-30T01:39:38;101826.81;;;6.98;48.43
76819;BME280;65772;51.096;17.006;2024-01-30T01:42:09;101822.82;;;6.94;48.50
76819;BME280;65772;51.096;17.006;2024-01-30T01:44:39;101822.33;;;6.92;48.69
76819;BME280;65772;51.096;17.006;2024-01-30T01:47:10;101829.39;;;6.91;48.83
76819;BME280;65772;51.096;17.006;2024-01-30T01:49:41;101823.98;;;6.91;48.78
76819;BME280;65772;51.096;17.006;2024-01-30T01:52:11;101820.98;;;6.92;48.91
76819;BME280;65772;51.096;17.006;2024-01-30T01:54:42;101819.88;;;6.93;48.70
76819;BME280;65772;51.096;17.006;2024-01-30T01:57:13;101826.40;;;6.95;48.92
76819;BME280;65772;51.096;17.006;2024-01-30T01:59:44;101823.23;;;6.93;48.97
76819;BME280;65772;51.096;17.006;2024-01-30T02:02:16;101818.58;;;6.92;48.93
76819;BME280;65772;51.096;17.006;2024-01-30T02:04:48;101813.77;;;6.93;48.83
76819;BME280;65772;51.096;17.006;2024-01-30T02:07:18;101814.91;;;6.95;48.92
76819;BME280;65772;51.096;17.006;2024-01-30T02:09:49;101811.52;;;6.98;49.03
76819;BME280;65772;51.096;17.006;2024-01-30T02:12:20;101813.30;;;6.99;48.96
76819;BME280;65772;51.096;17.006;2024-01-30T02:14:51;101811.11;;;6.99;48.94
76819;BME280;65772;51.096;17.006;2024-01-30T02:17:23;101812.31;;;7.00;48.89
76819;BME280;65772;51.096;17.006;2024-01-30T02:19:53;101807.90;;;7.00;48.90
76819;BME280;65772;51.096;17.006;2024-01-30T02:22:25;101806.37;;;6.99;48.87
76819;BME280;65772;51.096;17.006;2024-01-30T02:24:56;101804.00;;;7.00;49.03
76819;BME280;65772;51.096;17.006;2024-01-30T02:27:26;101807.45;;;7.01;49.11
76819;BME280;65772;51.096;17.006;2024-01-30T02:29:57;101803.35;;;7.03;49.14
76819;BME280;65772;51.096;17.006;2024-01-30T02:32:27;101808.95;;;7.05;49.13
76819;BME280;65772;51.096;17.006;2024-01-30T02:34:58;101804.48;;;7.07;49.12
76819;BME280;65772;51.096;17.006;2024-01-30T02:37:29;101807.08;;;7.07;48.91
76819;BME280;65772;51.096;17.006;2024-01-30T02:39:59;101805.50;;;7.07;48.94
76819;BME280;65772;51.096;17.006;2024-01-30T02:42:30;101804.16;;;7.05;49.08
76819;BME280;65772;51.096;17.006;2024-01-30T02:45:00;101804.75;;;7.04;49.18
76819;BME280;65772;51.096;17.006;2024-01-30T02:47:31;101803.39;;;7.03;49.16
76819;BME280;65772;51.096;17.006;2024-01-30T02:50:01;101803.02;;;7.03;49.27
76819;BME280;65772;51.096;17.006;2024-01-30T02:52:32;101801.83;;;7.03;49.15
76819;BME280;65772;51.096;17.006;2024-01-30T02:55:03;101803.71;;;7.03;49.22
76819;BME280;65772;51.096;17.006;2024-01-30T02:57:34;101810.58;;;7.04;49.26
76819;BME280;65772;51.096;17.006;2024-01-30T03:00:06;101807.95;;;7.03;49.13
76819;BME280;65772;51.096;17.006;2024-01-30T03:02:39;101808.58;;;7.02;49.12
76819;BME280;65772;51.096;17.006;2024-01-30T03:05:09;101807.52;;;7.02;49.26
76819;BME280;65772;51.096;17.006;2024-01-30T03:07:40;101804.28;;;7.02;49.27
76819;BME280;65772;51.096;17.006;2024-01-30T03:10:11;101805.20;;;7.00;49.29
76819;BME280;65772;51.096;17.006;2024-01-30T03:12:41;101803.44;;;6.99;49.27
76819;BME280;65772;51.096;17.006;2024-01-30T03:15:12;101803.81;;;6.97;49.24
76819;BME280;65772;51.096;17.006;2024-01-30T03:17:42;101805.55;;;6.95;49.44
76819;BME280;65772;51.096;17.006;2024-01-30T03:20:14;101809.17;;;6.93;49.35
76819;BME280;65772;51.096;17.006;2024-01-30T03:22:45;101802.63;;;6.92;49.40
76819;BME280;65772;51.096;17.006;2024-01-30T03:25:15;101809.06;;;6.92;49.41
76819;BME280;65772;51.096;17.006;2024-01-30T03:27:46;101803.42;;;6.91;49.45
76819;BME280;65772;51.096;17.006;2024-01-30T03:30:16;101802.70;;;6.91;49.36
76819;BME280;65772;51.096;17.006;2024-01-30T03:32:47;101798.88;;;6.89;49.61
76819;BME280;65772;51.096;17.006;2024-01-30T03:35:18;101794.59;;;6.89;49.79
76819;BME280;65772;51.096;17.006;2024-01-30T03:37:49;101788.34;;;6.89;49.51
76819;BME280;65772;51.096;17.006;2024-01-30T03:40:19;101787.82;;;6.89;49.77
76819;BME280;65772;51.096;17.006;2024-01-30T03:42:50;101795.29;;;6.89;49.70
76819;BME280;65772;51.096;17.006;2024-01-30T03:45:21;101797.24;;;6.87;49.73
76819;BME280;65772;51.096;17.006;2024-01-30T03:47:51;101790.21;;;6.84;49.78
76819;BME280;65772;51.096;17.006;2024-01-30T03:50:22;101778.35;;;6.82;49.72
76819;BME280;65772;51.096;17.006;2024-01-30T03:52:52;101776.20;;;6.83;49.88
76819;BME280;65772;51.096;17.006;2024-01-30T03:55:23;101788.42;;;6.85;50.03
76819;BME280;65772;51.096;17.006;2024-01-30T03:57:54;101786.98;;;6.84;49.78
76819;BME280;65772;51.096;17.006;2024-01-30T04:00:24;101786.17;;;6.82;49.81
76819;BME280;65772;51.096;17.006;2024-01-30T04:02:55;101784.15;;;6.80;50.14
76819;BME280;65772;51.096;17.006;2024-01-30T04:05:25;101784.44;;;6.79;50.17
76819;BME280;65772;51.096;17.006;2024-01-30T04:07:56;101784.11;;;6.79;50.00
76819;BME280;65772;51.096;17.006;2024-01-30T04:10:27;101785.35;;;6.80;50.03
76819;BME280;65772;51.096;17.006;2024-01-30T04:12:57;101787.30;;;6.79;50.05
76819;BME280;65772;51.096;17.006;2024-01-30T04:15:29;101792.33;;;6.78;49.89
76819;BME280;65772;51.096;17.006;2024-01-30T04:18:00;101793.96;;;6.74;50.13
76819;BME280;65772;51.096;17.006;2024-01-30T04:20:31;101787.81;;;6.71;50.22
76819;BME280;65772;51.096;17.006;2024-01-30T04:23:01;101786.63;;;6.71;50.28
76819;BME280;65772;51.096;17.006;2024-01-30T04:25:32;101788.26;;;6.71;50.04
76819;BME280;65772;51.096;17.006;2024-01-30T04:28:03;101785.77;;;6.69;50.23
76819;BME280;65772;51.096;17.006;2024-01-30T04:30:33;101784.68;;;6.67;50.15
76819;BME280;65772;51.096;17.006;2024-01-30T04:33:05;101784.18;;;6.68;50.40
76819;BME280;65772;51.096;17.006;2024-01-30T04:35:35;101784.42;;;6.69;50.19
76819;BME280;65772;51.096;17.006;2024-01-30T04:38:06;101788.02;;;6.70;50.44
76819;BME280;65772;51.096;17.006;2024-01-30T04:40:37;101785.23;;;6.71;50.35
76819;BME280;65772;51.096;17.006;2024-01-30T04:43:07;101791.17;;;6.73;50.34
76819;BME280;65772;51.096;17.006;2024-01-30T04:45:38;101796.02;;;6.75;50.27
76819;BME280;65772;51.096;17.006;2024-01-30T04:48:09;101790.27;;;6.75;50.29
76819;BME280;65772;51.096;17.006;2024-01-30T04:50:39;101790.15;;;6.76;50.43
76819;BME280;65772;51.096;17.006;2024-01-30T04:53:10;101792.98;;;6.77;50.29
76819;BME280;65772;51.096;17.006;2024-01-30T04:55:40;101796.06;;;6.78;50.18
76819;BME280;65772;51.096;17.006;2024-01-30T04:58:11;101798.20;;;6.77;50.49
76819;BME280;65772;51.096;17.006;2024-01-30T05:00:41;101789.84;;;6.76;50.27
76819;BME280;65772;51.096;17.006;2024-01-30T05:03:12;101788.24;;;6.77;50.28
76819;BME280;65772;51.096;17.006;2024-01-30T05:05:43;101791.88;;;6.79;50.39
76819;BME280;65772;51.096;17.006;2024-01-30T05:08:13;101794.07;;;6.79;50.44
76819;BME280;65772;51.096;17.006;2024-01-30T05:10:44;101792.34;;;6.78;50.18
76819;BME280;65772;51.096;17.006;2024-01-30T05:13:15;101792.15;;;6.78;50.36
76819;BME280;65772;51.096;17.006;2024-01-30T05:15:46;101791.39;;;6.76;50.39
76819;BME280;65772;51.096;17.006;2024-01-30T05:18:16;101793.60;;;6.76;50.48
76819;BME280;65772;51.096;17.006;2024-01-30T05:20:47;101793.20;;;6.78;50.39
76819;BME280;65772;51.096;17.006;2024-01-30T05:23:18;101789.48;;;6.78;50.42
76819;BME280;65772;51.096;17.006;2024-01-30T05:25:48;101787.83;;;6.79;50.49
76819;BME280;65772;51.096;17.006;2024-01-30T05:28:19;101790.60;;;6.80;50.40
76819;BME280;65772;51.096;17.006;2024-01-30T05:30:49;101792.30;;;6.80;50.39
76819;BME280;65772;51.096;17.006;2024-01-30T05:33:20;101795.10;;;6.79;50.49
76819;BME280;65772;51.096;17.006;2024-01-30T05:35:51;101793.59;;;6.79;50.47
76819;BME280;65772;51.096;17.006;2024-01-30T05:38:23;101793.95;;;6.79;50.40
76819;BME280;65772;51.096;17.006;2024-01-30T05:40:54;101795.45;;;6.79;50.40
76819;BME280;65772;51.096;17.006;2024-01-30T05:43:25;101793.23;;;6.79;50.38
76819;BME280;65772;51.096;17.006;2024-01-30T05:45:55;101795.08;;;6.79;50.44
76819;BME280;65772;51.096;17.006;2024-01-30T05:48:26;101800.02;;;6.79;50.43
76819;BME280;65772;51.096;17.006;2024-01-30T05:50:56;101800.86;;;6.79;50.39
76819;BME280;65772;51.096;17.006;2024-01-30T05:53:29;101796.73;;;6.78;50.33
76819;BME280;65772;51.096;17.006;2024-01-30T05:56:00;101796.70;;;6.77;50.26
76819;BME280;65772;51.096;17.006;2024-01-30T05:58:31;101801.74;;;6.76;50.43
76819;BME280;65772;51.096;17.006;2024-01-30T06:01:02;101801.09;;;6.74;50.46
76819;BME280;65772;51.096;17.006;2024-01-30T06:03:32;101800.18;;;6.74;50.53
76819;BME280;65772;51.096;17.006;2024-01-30T06:06:03;101802.99;;;6.72;50.39
76819;BME280;65772;51.096;17.006;2024-01-30T06:08:34;101804.96;;;6.72;50.42
76819;BME280;65772;51.096;17.006;2024-01-30T06:11:04;101809.12;;;6.70;50.57
76819;BME280;65772;51.096;17.006;2024-01-30T06:13:35;101807.92;;;6.70;50.62
76819;BME280;65772;51.096;17.006;2024-01-30T06:16:08;101805.70;;;6.70;50.60
76819;BME280;65772;51.096;17.006;2024-01-30T06:18:39;101805.80;;;6.69;50.63
76819;BME280;65772;51.096;17.006;2024-01-30T06:21:09;101804.74;;;6.69;50.63
76819;BME280;65772;51.096;17.006;2024-01-30T06:23:41;101800.83;;;6.68;50.59
76819;BME280;65772;51.096;17.006;2024-01-30T06:26:12;101802.24;;;6.69;50.49
76819;BME280;65772;51.096;17.006;2024-01-30T06:28:42;101807.87;;;6.70;50.44
76819;BME280;65772;51.096;17.006;2024-01-30T06:31:13;101807.93;;;6.70;50.58
76819;BME280;65772;51.096;17.006;2024-01-30T06:33:46;101804.89;;;6.71;50.44
76819;BME280;65772;51.096;17.006;2024-01-30T06:36:17;101803.70;;;6.71;50.48
76819;BME280;65772;51.096;17.006;2024-01-30T06:38:47;101802.45;;;6.70;50.39
76819;BME280;65772;51.096;17.006;2024-01-30T06:41:18;101799.19;;;6.69;50.49
76819;BME280;65772;51.096;17.006;2024-01-30T06:43:48;101802.08;;;6.69;50.67
76819;BME280;65772;51.096;17.006;2024-01-30T06:46:19;101797.02;;;6.70;50.54
76819;BME280;65772;51.096;17.006;2024-01-30T06:48:49;101803.02;;;6.70;50.52
76819;BME280;65772;51.096;17.006;2024-01-30T06:51:20;101804.03;;;6.71;50.49
76819;BME280;65772;51.096;17.006;2024-01-30T06:53:50;101807.48;;;6.69;50.57
76819;BME280;65772;51.096;17.006;2024-01-30T06:56:21;101804.86;;;6.68;50.44
76819;BME280;65772;51.096;17.006;2024-01-30T06:58:52;101802.17;;;6.68;50.44
76819;BME280;65772;51.096;17.006;2024-01-30T07:01:29;101806.70;;;6.70;50.51
76819;BME280;65772;51.096;17.006;2024-01-30T07:04:00;101809.19;;;6.72;50.38
76819;BME280;65772;51.096;17.006;2024-01-30T07:06:30;101809.41;;;6.72;50.36
76819;BME280;65772;51.096;17.006;2024-01-30T07:09:01;101805.56;;;6.73;50.33
76819;BME280;65772;51.096;17.006;2024-01-30T07:11:32;101802.21;;;6.73;50.22
76819;BME280;65772;51.096;17.006;2024-01-30T07:14:03;101800.98;;;6.78;50.09
76819;BME280;65772;51.096;17.006;2024-01-30T07:16:34;101796.73;;;6.82;50.00
76819;BME280;65772;51.096;17.006;2024-01-30T07:19:04;101801.05;;;6.86;49.88
76819;BME280;65772;51.096;17.006;2024-01-30T07:21:35;101801.87;;;6.88;49.60
76819;BME280;65772;51.096;17.006;2024-01-30T07:24:06;101806.88;;;6.90;49.77
76819;BME280;65772;51.096;17.006;2024-01-30T07:26:36;101806.30;;;6.91;49.59
76819;BME280;65772;51.096;17.006;2024-01-30T07:29:07;101805.27;;;6.93;49.62
76819;BME280;65772;51.096;17.006;2024-01-30T07:31:37;101806.25;;;6.95;49.51
76819;BME280;65772;51.096;17.006;2024-01-30T07:34:10;101811.49;;;6.97;49.53
76819;BME280;65772;51.096;17.006;2024-01-30T07:36:41;101815.21;;;7.00;49.43
76819;BME280;65772;51.096;17.006;2024-01-30T07:39:11;101814.11;;;7.01;49.40
76819;BME280;65772;51.096;17.006;2024-01-30T07:41:42;101818.80;;;7.03;49.53
76819;BME280;65772;51.096;17.006;2024-01-30T07:44:13;101815.85;;;7.04;49.45
76819;BME280;65772;51.096;17.006;2024-01-30T07:46:43;101823.23;;;7.06;49.41
76819;BME280;65772;51.096;17.006;2024-01-30T07:49:14;101823.02;;;7.07;49.43
76819;BME280;65772;51.096;17.006;2024-01-30T07:51:45;101822.91;;;7.08;49.45
76819;BME280;65772;51.096;17.006;2024-01-30T07:54:15;101821.98;;;7.10;49.31
76819;BME280;65772;51.096;17.006;2024-01-30T07:56:46;101821.89;;;7.11;49.36
76819;BME280;65772;51.096;17.006;2024-01-30T07:59:17;101815.89;;;7.13;49.46
76819;BME280;65772;51.096;17.006;2024-01-30T08:01:51;101820.77;;;7.14;49.41
76819;BME280;65772;51.096;17.006;2024-01-30T08:04:21;101816.07;;;7.15;49.49
76819;BME280;65772;51.096;17.006;2024-01-30T08:06:52;101822.67;;;7.17;49.38
76819;BME280;65772;51.096;17.006;2024-01-30T08:09:23;101821.67;;;7.20;49.41
76819;BME280;65772;51.096;17.006;2024-01-30T08:11:53;101820.13;;;7.22;49.34
76819;BME280;65772;51.096;17.006;2024-01-30T08:14:24;101818.41;;;7.25;49.17
76819;BME280;65772;51.096;17.006;2024-01-30T08:16:55;101817.83;;;7.26;49.30
76819;BME280;65772;51.096;17.006;2024-01-30T08:19:25;101816.30;;;7.28;49.23
76819;BME280;65772;51.096;17.006;2024-01-30T08:21:56;101815.79;;;7.31;49.29
76819;BME280;65772;51.096;17.006;2024-01-30T08:24:27;101808.70;;;7.35;49.25
76819;BME280;65772;51.096;17.006;2024-01-30T08:26:57;101805.02;;;7.38;49.14
76819;BME280;65772;51.096;17.006;2024-01-30T08:29:30;101805.77;;;7.42;48.99
76819;BME280;65772;51.096;17.006;2024-01-30T08:32:00;101801.36;;;7.45;48.99
76819;BME280;65772;51.096;17.006;2024-01-30T08:34:31;101805.55;;;7.49;48.82
76819;BME280;65772;51.096;17.006;2024-01-30T08:37:02;101806.80;;;7.53;48.83
76819;BME280;65772;51.096;17.006;2024-01-30T08:39:33;101799.72;;;7.56;48.73
76819;BME280;65772;51.096;17.006;2024-01-30T08:42:04;101803.92;;;7.60;48.75
76819;BME280;65772;51.096;17.006;2024-01-30T08:44:35;101803.56;;;7.65;48.66
76819;BME280;65772;51.096;17.006;2024-01-30T08:47:06;101801.77;;;7.71;48.78
76819;BME280;65772;51.096;17.006;2024-01-30T08:49:37;101800.96;;;7.78;48.55
76819;BME280;65772;51.096;17.006;2024-01-30T08:52:07;101801.16;;;7.83;48.28
76819;BME280;65772;51.096;17.006;2024-01-30T08:54:38;101801.73;;;7.87;48.26
76819;BME280;65772;51.096;17.006;2024-01-30T08:57:08;101795.98;;;7.93;48.26
76819;BME280;65772;51.096;17.006;2024-01-30T08:59:39;101802.69;;;7.99;48.17
76819;BME280;65772;51.096;17.006;2024-01-30T09:02:09;101800.14;;;8.05;47.77
76819;BME280;65772;51.096;17.006;2024-01-30T09:04:42;101802.54;;;8.11;47.78
76819;BME280;65772;51.096;17.006;2024-01-30T09:07:13;101804.69;;;8.15;47.60
76819;BME280;65772;51.096;17.006;2024-01-30T09:09:44;101807.44;;;8.18;47.17
76819;BME280;65772;51.096;17.006;2024-01-30T09:12:15;101799.38;;;8.23;47.23
76819;BME280;65772;51.096;17.006;2024-01-30T09:14:45;101791.70;;;8.28;47.34
76819;BME280;65772;51.096;17.006;2024-01-30T09:17:16;101789.56;;;8.34;47.08
76819;BME280;65772;51.096;17.006;2024-01-30T09:19:46;101792.39;;;8.38;46.92
76819;BME280;65772;51.096;17.006;2024-01-30T09:22:17;101796.30;;;8.41;46.60
76819;BME280;65772;51.096;17.006;2024-01-30T09:24:48;101796.09;;;8.46;46.82
76819;BME280;65772;51.096;17.006;2024-01-30T09:27:18;101787.72;;;8.51;46.72
76819;BME280;65772;51.096;17.006;2024-01-30T09:29:49;101790.45;;;8.57;46.59
76819;BME280;65772;51.096;17.006;2024-01-30T09:32:19;101791.11;;;8.62;46.67
76819;BME280;65772;51.096;17.006;2024-01-30T09:34:50;101792.64;;;8.67;46.73
76819;BME280;65772;51.096;17.006;2024-01-30T09:37:21;101788.80;;;8.72;46.39
76819;BME280;65772;51.096;17.006;2024-01-30T09:39:55;101789.66;;;8.77;46.23
76819;BME280;65772;51.096;17.006;2024-01-30T09:42:32;101789.20;;;8.84;46.18
76819;BME280;65772;51.096;17.006;2024-01-30T09:45:05;101781.18;;;8.90;45.66
76819;BME280;65772;51.096;17.006;2024-01-30T09:47:41;101780.61;;;8.95;45.70
76819;BME280;65772;51.096;17.006;2024-01-30T09:50:14;101774.28;;;9.00;45.39
76819;BME280;65772;51.096;17.006;2024-01-30T09:52:45;101775.70;;;9.06;45.00
76819;BME280;65772;51.096;17.006;2024-01-30T09:55:16;101778.57;;;9.12;45.03
76819;BME280;65772;51.096;17.006;2024-01-30T09:57:46;101777.02;;;9.17;44.89
76819;BME280;65772;51.096;17.006;2024-01-30T10:00:18;101773.20;;;9.22;44.86
76819;BME280;65772;51.096;17.006;2024-01-30T10:02:48;101770.86;;;9.29;44.40
76819;BME280;65772;51.096;17.006;2024-01-30T10:05:20;101770.36;;;9.35;44.52
76819;BME280;65772;51.096;17.006;2024-01-30T10:07:56;101765.94;;;9.41;44.67
76819;BME280;65772;51.096;17.006;2024-01-30T10:10:27;101762.66;;;9.46;44.24
76819;BME280;65772;51.096;17.006;2024-01-30T10:12:58;101759.41;;;9.52;43.91
76819;BME280;65772;51.096;17.006;2024-01-30T10:15:33;101754.98;;;9.55;44.23
76819;BME280;65772;51.096;17.006;2024-01-30T10:18:05;101750.88;;;9.61;44.06
76819;BME280;65772;51.096;17.006;2024-01-30T10:20:36;101753.09;;;9.67;43.88
76819;BME280;65772;51.096;17.006;2024-01-30T10:23:07;101749.48;;;9.72;43.93
76819;BME280;65772;51.096;17.006;2024-01-30T10:25:39;101747.14;;;9.77;43.63
76819;BME280;65772;51.096;17.006;2024-01-30T10:28:11;101742.23;;;9.80;43.64
76819;BME280;65772;51.096;17.006;2024-01-30T10:30:42;101744.00;;;9.85;43.75
76819;BME280;65772;51.096;17.006;2024-01-30T10:33:12;101740.81;;;9.89;44.06
76819;BME280;65772;51.096;17.006;2024-01-30T10:35:44;101741.08;;;9.94;43.64
76819;BME280;65772;51.096;17.006;2024-01-30T10:38:17;101738.31;;;9.99;43.69
76819;BME280;65772;51.096;17.006;2024-01-30T10:40:52;101737.83;;;10.06;43.60
76819;BME280;65772;51.096;17.006;2024-01-30T10:43:27;101733.30;;;10.14;43.70
76819;BME280;65772;51.096;17.006;2024-01-30T10:46:04;101733.39;;;10.21;43.30
76819;BME280;65772;51.096;17.006;2024-01-30T10:48:39;101730.48;;;10.28;43.10
76819;BME280;65772;51.096;17.006;2024-01-30T10:51:14;101730.28;;;10.34;42.76
76819;BME280;65772;51.096;17.006;2024-01-30T10:53:47;101720.65;;;10.39;42.51
76819;BME280;65772;51.096;17.006;2024-01-30T10:56:22;101716.96;;;10.43;42.38
76819;BME280;65772;51.096;17.006;2024-01-30T10:58:54;101713.96;;;10.48;42.29
76819;BME280;65772;51.096;17.006;2024-01-30T11:01:25;101711.31;;;10.53;42.38
76819;BME280;65772;51.096;17.006;2024-01-30T11:03:57;101708.34;;;10.58;41.70
76819;BME280;65772;51.096;17.006;2024-01-30T11:06:28;101706.61;;;10.65;42.03
76819;BME280;65772;51.096;17.006;2024-01-30T11:09:06;101701.17;;;10.72;42.04
76819;BME280;65772;51.096;17.006;2024-01-30T11:11:55;101703.45;;;10.80;41.62
76819;BME280;65772;51.096;17.006;2024-01-30T11:14:30;101699.23;;;10.87;41.43
76819;BME280;65772;51.096;17.006;2024-01-30T11:17:01;101690.60;;;10.92;41.42
76819;BME280;65772;51.096;17.006;2024-01-30T11:19:34;101693.14;;;10.99;41.27
76819;BME280;65772;51.096;17.006;2024-01-30T11:22:07;101690.13;;;11.04;41.12
76819;BME280;65772;51.096;17.006;2024-01-30T11:24:44;101689.06;;;11.10;41.04
76819;BME280;65772;51.096;17.006;2024-01-30T11:27:18;101685.66;;;11.14;40.89
76819;BME280;65772;51.096;17.006;2024-01-30T11:29:51;101682.23;;;11.20;40.83
76819;BME280;65772;51.096;17.006;2024-01-30T11:32:24;101684.33;;;11.25;40.68
76819;BME280;65772;51.096;17.006;2024-01-30T11:34:55;101675.16;;;11.30;40.78
76819;BME280;65772;51.096;17.006;2024-01-30T11:37:27;101674.27;;;11.36;40.62
76819;BME280;65772;51.096;17.006;2024-01-30T11:39:59;101673.00;;;11.42;40.66
76819;BME280;65772;51.096;17.006;2024-01-30T11:42:31;101668.02;;;11.45;40.24
76819;BME280;65772;51.096;17.006;2024-01-30T11:45:04;101671.05;;;11.48;40.04
76819;BME280;65772;51.096;17.006;2024-01-30T11:47:37;101664.95;;;11.49;39.72
76819;BME280;65772;51.096;17.006;2024-01-30T11:50:13;101666.77;;;11.48;39.72
76819;BME280;65772;51.096;17.006;2024-01-30T11:52:44;101657.59;;;11.46;39.63
76819;BME280;65772;51.096;17.006;2024-01-30T11:55:15;101654.63;;;11.44;39.64
76819;BME280;65772;51.096;17.006;2024-01-30T11:57:45;101654.94;;;11.43;39.87
76819;BME280;65772;51.096;17.006;2024-01-30T12:00:20;101645.45;;;11.42;39.89
76819;BME280;65772;51.096;17.006;2024-01-30T12:02:52;101645.71;;;11.44;39.94
76819;BME280;65772;51.096;17.006;2024-01-30T12:05:26;101640.40;;;11.47;40.01
76819;BME280;65772;51.096;17.006;2024-01-30T12:07:57;101635.81;;;11.52;40.10
76819;BME280;65772;51.096;17.006;2024-01-30T12:10:30;101633.70;;;11.57;40.04
76819;BME280;65772;51.096;17.006;2024-01-30T12:13:02;101631.41;;;11.63;40.03
76819;BME280;65772;51.096;17.006;2024-01-30T12:15:34;101632.20;;;11.66;39.83
76819;BME280;65772;51.096;17.006;2024-01-30T12:18:09;101633.09;;;11.66;39.58
76819;BME280;65772;51.096;17.006;2024-01-30T12:20:39;101627.07;;;11.69;39.55
76819;BME280;65772;51.096;17.006;2024-01-30T12:23:11;101629.58;;;11.75;39.67
76819;BME280;65772;51.096;17.006;2024-01-30T12:25:42;101627.86;;;11.83;39.65
76819;BME280;65772;51.096;17.006;2024-01-30T12:28:13;101624.73;;;11.93;39.52
76819;BME280;65772;51.096;17.006;2024-01-30T12:30:43;101618.92;;;12.01;39.16
76819;BME280;65772;51.096;17.006;2024-01-30T12:33:18;101616.81;;;12.07;38.87
76819;BME280;65772;51.096;17.006;2024-01-30T12:35:50;101609.84;;;12.16;39.18
76819;BME280;65772;51.096;17.006;2024-01-30T12:38:31;101608.12;;;12.24;39.01
76819;BME280;65772;51.096;17.006;2024-01-30T12:41:02;101602.95;;;12.31;38.85
76819;BME280;65772;51.096;17.006;2024-01-30T12:43:33;101601.08;;;12.39;38.91
76819;BME280;65772;51.096;17.006;2024-01-30T12:46:08;101598.77;;;12.45;38.85
76819;BME280;65772;51.096;17.006;2024-01-30T12:48:39;101598.41;;;12.50;38.40
76819;BME280;65772;51.096;17.006;2024-01-30T12:51:09;101599.81;;;12.51;38.39
76819;BME280;65772;51.096;17.006;2024-01-30T12:53:40;101599.70;;;12.52;38.34
76819;BME280;65772;51.096;17.006;2024-01-30T12:56:11;101595.04;;;12.51;38.26
76819;BME280;65772;51.096;17.006;2024-01-30T12:58:41;101597.38;;;12.49;38.41
76819;BME280;65772;51.096;17.006;2024-01-30T13:01:14;101598.48;;;12.47;38.50
76819;BME280;65772;51.096;17.006;2024-01-30T13:03:44;101592.36;;;12.44;38.37
76819;BME280;65772;51.096;17.006;2024-01-30T13:06:15;101596.36;;;12.42;38.56
76819;BME280;65772;51.096;17.006;2024-01-30T13:08:46;101595.44;;;12.40;38.36